Time;durP1;ratioP1;P1;durP2;ratioP2;P2;SDS_P1;SDS_P2;PMS_P1;PMS_P2;Temp;Humidity;BMP_temperature;BMP_pressure;BME280_temperature;BME280_humidity;BME280_pressure;Samples;Min_cycle;Max_cycle;Signal;HPM_P1;HPM_P2
2021/10/11 00:01:51;;;;;;;75.90;35.83;;;;;;;;;;5034562;28;20657;-74
2021/10/11 00:04:16;;;;;;;76.25;35.80;;;;;;;;;;5041704;28;20185;-74
2021/10/11 00:06:41;;;;;;;81.03;35.80;;;;;;;;;;5034645;28;20189;-74
2021/10/11 00:09:07;;;;;;;74.03;35.20;;;;;;;;;;5043721;28;20261;-74
2021/10/11 00:11:32;;;;;;;74.95;33.65;;;;;;;;;;5036102;28;20193;-74
2021/10/11 00:13:58;;;;;;;74.25;32.85;;;;;;;;;;5038503;28;20601;-74
2021/10/11 00:16:23;;;;;;;72.00;32.90;;;;;;;;;;5033338;28;20284;-74
2021/10/11 00:18:49;;;;;;;67.72;31.73;;;;;;;;;;5041961;28;20197;-73
2021/10/11 00:21:16;;;;;;;60.85;31.33;;;;;;;;;;5031130;28;20239;-73
2021/10/11 00:23:42;;;;;;;73.85;31.05;;;;;;;;;;5046214;28;20189;-73
2021/10/11 00:26:07;;;;;;;66.30;30.48;;;;;;;;;;5041820;28;20196;-73
2021/10/11 00:28:33;;;;;;;66.32;29.63;;;;;;;;;;5035221;28;20484;-73
2021/10/11 00:30:58;;;;;;;71.80;29.67;;;;;;;;;;5040235;28;20193;-73
2021/10/11 00:33:23;;;;;;;52.95;26.58;;;;;;;;;;5026533;28;20185;-73
2021/10/11 00:35:49;;;;;;;66.07;28.63;;;;;;;;;;5041338;28;20637;-73
2021/10/11 00:38:15;;;;;;;58.80;27.30;;;;;;;;;;5037033;28;20200;-73
2021/10/11 00:40:40;;;;;;;68.28;27.80;;;;;;;;;;5037898;28;20697;-73
2021/10/11 00:43:05;;;;;;;60.53;24.75;;;;;;;;;;5037268;28;20322;-73
2021/10/11 00:45:31;;;;;;;50.40;23.02;;;;;;;;;;5040107;28;20630;-73
2021/10/11 00:47:56;;;;;;;55.63;24.00;;;;;;;;;;5034691;28;20284;-73
2021/10/11 00:50:22;;;;;;;49.25;20.50;;;;;;;;;;5038865;28;20193;-73
2021/10/11 00:52:48;;;;;;;42.60;19.05;;;;;;;;;;5027395;28;20285;-73
2021/10/11 00:55:14;;;;;;;44.28;16.65;;;;;;;;;;5041219;28;20206;-74
2021/10/11 00:57:39;;;;;;;35.97;15.70;;;;;;;;;;5037406;28;20245;-73
2021/10/11 01:00:05;;;;;;;37.90;15.13;;;;;;;;;;5032382;28;20212;-73
2021/10/11 01:02:31;;;;;;;29.85;14.10;;;;;;;;;;5041799;28;20288;-73
2021/10/11 01:04:56;;;;;;;30.50;13.43;;;;;;;;;;5033601;28;20586;-73
2021/10/11 01:07:22;;;;;;;30.10;12.25;;;;;;;;;;5038745;28;20596;-73
2021/10/11 01:09:47;;;;;;;24.13;11.02;;;;;;;;;;5033873;28;20308;-73
2021/10/11 01:12:13;;;;;;;27.17;10.18;;;;;;;;;;5036794;28;20190;-72
2021/10/11 01:14:38;;;;;;;19.77;8.13;;;;;;;;;;5034578;28;20205;-72
2021/10/11 01:17:05;;;;;;;19.08;7.82;;;;;;;;;;5040806;28;20213;-74
2021/10/11 01:19:30;;;;;;;22.23;7.18;;;;;;;;;;5029893;28;20555;-73
2021/10/11 01:21:55;;;;;;;19.10;6.47;;;;;;;;;;5041405;28;20258;-73
2021/10/11 01:24:21;;;;;;;20.40;5.85;;;;;;;;;;5042784;28;20184;-73
2021/10/11 01:26:46;;;;;;;18.42;5.07;;;;;;;;;;5032454;28;20587;-73
2021/10/11 01:29:15;;;;;;;18.25;5.07;;;;;;;;;;5038734;28;20654;-73
2021/10/11 01:31:42;;;;;;;18.27;5.00;;;;;;;;;;5033998;28;20795;-73
2021/10/11 01:34:07;;;;;;;19.30;5.32;;;;;;;;;;5042427;28;20181;-73
2021/10/11 01:36:33;;;;;;;15.05;4.20;;;;;;;;;;5031707;28;20265;-74
2021/10/11 01:39:01;;;;;;;22.70;5.30;;;;;;;;;;5037354;28;20182;-73
2021/10/11 01:41:27;;;;;;;18.27;4.90;;;;;;;;;;5034226;28;20261;-72
2021/10/11 01:43:52;;;;;;;14.13;4.18;;;;;;;;;;5043187;28;20232;-73
2021/10/11 01:46:18;;;;;;;13.20;4.15;;;;;;;;;;5029218;28;20276;-72
2021/10/11 01:48:43;;;;;;;14.18;3.15;;;;;;;;;;5041408;28;20256;-73
2021/10/11 01:51:09;;;;;;;16.05;4.43;;;;;;;;;;5031494;28;23266;-73
2021/10/11 01:53:34;;;;;;;24.52;3.88;;;;;;;;;;5041740;28;20178;-73
2021/10/11 01:55:59;;;;;;;12.55;3.25;;;;;;;;;;5039959;28;20716;-73
2021/10/11 01:58:25;;;;;;;12.60;3.75;;;;;;;;;;5033254;28;20568;-73
2021/10/11 02:00:50;;;;;;;11.60;3.42;;;;;;;;;;5036534;28;20512;-73
2021/10/11 02:03:15;;;;;;;10.15;3.20;;;;;;;;;;5032558;28;20615;-73
2021/10/11 02:05:41;;;;;;;14.38;2.97;;;;;;;;;;5034042;28;20274;-73
2021/10/11 02:08:06;;;;;;;14.52;3.35;;;;;;;;;;5032087;28;20181;-73
2021/10/11 02:10:32;;;;;;;12.57;4.15;;;;;;;;;;5039085;28;20669;-73
2021/10/11 02:12:58;;;;;;;16.85;3.30;;;;;;;;;;5029856;28;20703;-72
2021/10/11 02:15:23;;;;;;;12.40;3.28;;;;;;;;;;5037351;28;20274;-72
2021/10/11 02:17:49;;;;;;;17.02;3.20;;;;;;;;;;5028303;28;20221;-73
2021/10/11 02:20:14;;;;;;;11.30;3.03;;;;;;;;;;5039837;28;20254;-72
2021/10/11 02:22:40;;;;;;;12.68;3.50;;;;;;;;;;5038063;28;20189;-72
2021/10/11 02:25:06;;;;;;;11.27;3.10;;;;;;;;;;5038270;28;20192;-72
2021/10/11 02:27:32;;;;;;;15.00;3.00;;;;;;;;;;5037466;28;20209;-72
2021/10/11 02:29:57;;;;;;;16.27;3.20;;;;;;;;;;5035188;28;20189;-73
2021/10/11 02:32:23;;;;;;;18.00;3.22;;;;;;;;;;5041466;28;20275;-72
2021/10/11 02:34:49;;;;;;;16.63;3.00;;;;;;;;;;5040566;28;20206;-73
2021/10/11 02:37:14;;;;;;;19.33;3.10;;;;;;;;;;5042421;28;20696;-73
2021/10/11 02:39:39;;;;;;;14.55;4.07;;;;;;;;;;5035074;28;20635;-73
2021/10/11 02:42:05;;;;;;;14.82;3.33;;;;;;;;;;5040833;28;20188;-73
2021/10/11 02:44:30;;;;;;;16.70;3.08;;;;;;;;;;5036503;28;20318;-73
2021/10/11 02:46:55;;;;;;;12.32;2.60;;;;;;;;;;5040369;28;20266;-73
2021/10/11 02:49:20;;;;;;;16.65;2.78;;;;;;;;;;5035242;28;20333;-73
2021/10/11 02:51:46;;;;;;;14.43;3.28;;;;;;;;;;5045236;28;20331;-73
2021/10/11 02:54:16;;;;;;;13.43;2.90;;;;;;;;;;5046119;28;20595;-74
2021/10/11 02:56:42;;;;;;;15.70;2.85;;;;;;;;;;5039053;28;20216;-75
2021/10/11 02:59:07;;;;;;;12.18;3.20;;;;;;;;;;5046666;28;20181;-74
2021/10/11 03:01:32;;;;;;;16.00;3.15;;;;;;;;;;5037414;28;20196;-73
2021/10/11 03:03:57;;;;;;;15.68;3.38;;;;;;;;;;5045356;28;20274;-74
2021/10/11 03:06:23;;;;;;;20.55;3.60;;;;;;;;;;5033764;28;20178;-74
2021/10/11 03:08:48;;;;;;;16.40;3.60;;;;;;;;;;5042853;28;20204;-74
2021/10/11 03:11:13;;;;;;;8.70;2.78;;;;;;;;;;5036415;28;20185;-73
2021/10/11 03:13:39;;;;;;;16.42;3.15;;;;;;;;;;5045725;28;20635;-73
2021/10/11 03:16:04;;;;;;;14.57;2.88;;;;;;;;;;5034493;28;20205;-74
2021/10/11 03:18:29;;;;;;;15.30;3.00;;;;;;;;;;5044771;28;20182;-73
2021/10/11 03:20:55;;;;;;;9.43;3.17;;;;;;;;;;5032159;28;20200;-74
2021/10/11 03:23:20;;;;;;;11.75;2.95;;;;;;;;;;5045612;28;20194;-73
2021/10/11 03:25:45;;;;;;;13.52;3.25;;;;;;;;;;5041717;28;20174;-74
2021/10/11 03:28:11;;;;;;;15.20;3.47;;;;;;;;;;5036206;28;20190;-74
2021/10/11 03:30:36;;;;;;;14.88;2.50;;;;;;;;;;5038134;28;20189;-74
2021/10/11 03:33:02;;;;;;;8.07;2.80;;;;;;;;;;5033036;28;20188;-74
2021/10/11 03:35:27;;;;;;;14.00;2.50;;;;;;;;;;5038070;28;20205;-74
2021/10/11 03:37:52;;;;;;;13.82;3.28;;;;;;;;;;5030190;28;20301;-74
2021/10/11 03:40:18;;;;;;;12.65;3.03;;;;;;;;;;5033268;28;20193;-74
2021/10/11 03:42:44;;;;;;;13.48;2.83;;;;;;;;;;5033935;28;20197;-74
2021/10/11 03:45:10;;;;;;;13.73;3.00;;;;;;;;;;5041470;28;20273;-74
2021/10/11 03:47:38;;;;;;;17.98;2.85;;;;;;;;;;5027890;28;20271;-74
2021/10/11 03:50:04;;;;;;;12.13;2.45;;;;;;;;;;5038462;28;20219;-74
2021/10/11 03:52:29;;;;;;;14.20;3.15;;;;;;;;;;5034518;28;20192;-74
2021/10/11 03:54:55;;;;;;;13.32;3.50;;;;;;;;;;5036104;28;20202;-74
2021/10/11 03:57:20;;;;;;;18.25;2.85;;;;;;;;;;5037365;28;20221;-74
2021/10/11 03:59:45;;;;;;;12.30;3.30;;;;;;;;;;5037030;28;20189;-74
2021/10/11 04:02:11;;;;;;;13.93;3.30;;;;;;;;;;5038035;28;20565;-74
2021/10/11 04:04:36;;;;;;;14.55;3.15;;;;;;;;;;5031230;28;20217;-74
2021/10/11 04:07:07;;;;;;;14.95;3.25;;;;;;;;;;5040756;28;20181;-74
2021/10/11 04:09:33;;;;;;;14.88;3.40;;;;;;;;;;5032005;28;20229;-74
2021/10/11 04:12:06;;;;;;;19.05;3.88;;;;;;;;;;5040807;28;20197;-74
2021/10/11 04:14:32;;;;;;;16.02;4.57;;;;;;;;;;5036188;28;20206;-74
2021/10/11 04:16:57;;;;;;;14.50;4.28;;;;;;;;;;5041306;28;20301;-73
2021/10/11 04:19:23;;;;;;;13.10;3.67;;;;;;;;;;5036057;28;20280;-73
2021/10/11 04:21:48;;;;;;;15.10;3.90;;;;;;;;;;5041584;28;20232;-73
2021/10/11 04:24:14;;;;;;;14.05;3.85;;;;;;;;;;5035982;28;20192;-73
2021/10/11 04:26:39;;;;;;;16.40;4.57;;;;;;;;;;5038120;28;20189;-74
2021/10/11 04:29:05;;;;;;;12.18;3.90;;;;;;;;;;5038553;28;20193;-72
2021/10/11 04:31:30;;;;;;;18.27;4.10;;;;;;;;;;5031056;28;20186;-73
2021/10/11 04:33:55;;;;;;;15.57;4.18;;;;;;;;;;5041453;28;20182;-74
2021/10/11 04:36:21;;;;;;;20.10;4.70;;;;;;;;;;5028196;28;20202;-73
2021/10/11 04:38:47;;;;;;;13.93;4.65;;;;;;;;;;5040243;28;20657;-73
2021/10/11 04:41:12;;;;;;;16.50;4.82;;;;;;;;;;5031158;28;20201;-73
2021/10/11 04:43:38;;;;;;;19.42;4.97;;;;;;;;;;5032426;28;20213;-73
2021/10/11 04:46:03;;;;;;;15.48;4.70;;;;;;;;;;5030378;28;20576;-72
2021/10/11 04:48:28;;;;;;;19.35;4.60;;;;;;;;;;5041041;28;20197;-73
2021/10/11 04:50:54;;;;;;;15.80;4.78;;;;;;;;;;5030359;28;20193;-73
2021/10/11 04:53:19;;;;;;;22.85;4.85;;;;;;;;;;5036431;28;20186;-73
2021/10/11 04:55:45;;;;;;;15.23;4.30;;;;;;;;;;5039451;28;20205;-73
2021/10/11 04:58:10;;;;;;;22.90;4.60;;;;;;;;;;5027034;28;20212;-73
2021/10/11 05:00:36;;;;;;;18.67;5.28;;;;;;;;;;5034824;28;20204;-73
2021/10/11 05:03:02;;;;;;;16.15;4.70;;;;;;;;;;5030250;28;20193;-73
2021/10/11 05:05:28;;;;;;;17.75;4.97;;;;;;;;;;5033319;28;20190;-73
2021/10/11 05:07:53;;;;;;;16.38;5.22;;;;;;;;;;5025525;28;20189;-73
2021/10/11 05:10:19;;;;;;;14.45;4.03;;;;;;;;;;5029445;28;20232;-74
2021/10/11 05:12:44;;;;;;;15.13;4.22;;;;;;;;;;5022176;28;20193;-73
2021/10/11 05:15:09;;;;;;;15.15;4.30;;;;;;;;;;5033140;28;20296;-73
2021/10/11 05:17:35;;;;;;;15.48;3.75;;;;;;;;;;5027675;28;20190;-73
2021/10/11 05:20:02;;;;;;;18.25;3.80;;;;;;;;;;5030750;28;20193;-73
2021/10/11 05:22:27;;;;;;;20.15;4.07;;;;;;;;;;5028434;28;20223;-73
2021/10/11 05:24:53;;;;;;;17.10;4.30;;;;;;;;;;5036827;28;20181;-73
2021/10/11 05:27:19;;;;;;;9.55;3.20;;;;;;;;;;5031150;28;20193;-73
2021/10/11 05:29:44;;;;;;;16.65;3.97;;;;;;;;;;5032139;28;20190;-73
2021/10/11 05:32:10;;;;;;;13.30;3.13;;;;;;;;;;5036909;28;20208;-73
2021/10/11 05:34:35;;;;;;;13.75;3.88;;;;;;;;;;5035330;28;20220;-73
2021/10/11 05:37:01;;;;;;;11.20;3.72;;;;;;;;;;5038926;28;20189;-73
2021/10/11 05:39:26;;;;;;;11.63;3.88;;;;;;;;;;5031420;28;20918;-73
2021/10/11 05:41:52;;;;;;;18.35;3.53;;;;;;;;;;5033519;28;20634;-73
2021/10/11 05:44:17;;;;;;;15.10;3.10;;;;;;;;;;5023363;28;21749;-71
2021/10/11 05:46:42;;;;;;;21.02;4.00;;;;;;;;;;5034269;28;20576;-73
2021/10/11 05:49:08;;;;;;;16.65;4.20;;;;;;;;;;5019674;28;20238;-74
2021/10/11 05:51:33;;;;;;;12.65;3.03;;;;;;;;;;5032480;28;20225;-74
2021/10/11 05:53:58;;;;;;;12.60;3.38;;;;;;;;;;5027888;28;20181;-74
2021/10/11 05:56:24;;;;;;;10.55;3.65;;;;;;;;;;5032406;28;20224;-74
2021/10/11 05:58:49;;;;;;;20.10;3.47;;;;;;;;;;5035308;28;20204;-73
2021/10/11 06:01:14;;;;;;;14.55;3.83;;;;;;;;;;5027429;28;20269;-73
2021/10/11 06:03:40;;;;;;;14.13;3.30;;;;;;;;;;5038363;28;20221;-73
2021/10/11 06:06:05;;;;;;;15.48;3.28;;;;;;;;;;5037314;28;20272;-74
2021/10/11 06:08:30;;;;;;;20.25;3.53;;;;;;;;;;5036575;28;20182;-73
2021/10/11 06:10:56;;;;;;;16.10;3.90;;;;;;;;;;5033880;28;20329;-74
2021/10/11 06:13:22;;;;;;;10.38;2.78;;;;;;;;;;5042891;28;20185;-74
2021/10/11 06:15:47;;;;;;;14.82;3.40;;;;;;;;;;5029812;28;20210;-74
2021/10/11 06:18:13;;;;;;;16.92;3.58;;;;;;;;;;5041466;28;21265;-74
2021/10/11 06:20:39;;;;;;;12.90;3.50;;;;;;;;;;5034750;28;20200;-75
2021/10/11 06:23:05;;;;;;;13.82;3.63;;;;;;;;;;5048513;28;20193;-75
2021/10/11 06:25:30;;;;;;;11.23;3.22;;;;;;;;;;5032180;28;20626;-75
2021/10/11 06:27:56;;;;;;;17.08;2.75;;;;;;;;;;5044853;28;20208;-75
2021/10/11 06:30:21;;;;;;;15.00;3.22;;;;;;;;;;5044923;28;20185;-74
2021/10/11 06:32:46;;;;;;;14.30;3.10;;;;;;;;;;5035334;28;20305;-74
2021/10/11 06:35:13;;;;;;;15.30;3.45;;;;;;;;;;5047052;28;20218;-74
2021/10/11 06:37:38;;;;;;;15.10;3.35;;;;;;;;;;5037340;28;20231;-75
2021/10/11 06:40:04;;;;;;;20.95;3.75;;;;;;;;;;5036583;28;20198;-75
2021/10/11 06:42:30;;;;;;;15.07;3.30;;;;;;;;;;5031564;28;20216;-74
2021/10/11 06:44:55;;;;;;;14.90;3.45;;;;;;;;;;5041895;28;20178;-74
2021/10/11 06:47:20;;;;;;;15.05;3.80;;;;;;;;;;4334546;28;10000817;-74
2021/10/11 06:49:46;;;;;;;12.77;3.38;;;;;;;;;;5041010;28;20536;-74
2021/10/11 06:52:13;;;;;;;14.20;2.92;;;;;;;;;;5033990;28;20243;-75
2021/10/11 06:54:39;;;;;;;11.18;3.10;;;;;;;;;;5040608;28;20406;-75
2021/10/11 06:57:04;;;;;;;18.95;3.08;;;;;;;;;;5040523;28;20831;-75
2021/10/11 06:59:29;;;;;;;16.13;3.15;;;;;;;;;;5030297;28;20701;-74
2021/10/11 07:01:54;;;;;;;13.98;2.90;;;;;;;;;;5036191;28;20198;-75
2021/10/11 07:04:21;;;;;;;14.18;3.22;;;;;;;;;;5035528;28;20200;-75
2021/10/11 07:06:47;;;;;;;9.55;3.10;;;;;;;;;;5044316;28;20280;-76
2021/10/11 07:09:12;;;;;;;15.93;3.00;;;;;;;;;;5031321;28;20319;-75
2021/10/11 07:11:37;;;;;;;15.75;3.05;;;;;;;;;;5044021;28;20637;-75
2021/10/11 07:14:03;;;;;;;15.90;3.95;;;;;;;;;;5031855;28;20185;-75
2021/10/11 07:16:28;;;;;;;12.02;3.00;;;;;;;;;;5038160;28;20210;-74
2021/10/11 07:18:54;;;;;;;16.15;3.17;;;;;;;;;;5036706;28;20685;-75
2021/10/11 07:21:19;;;;;;;12.45;3.25;;;;;;;;;;5044475;28;20207;-75
2021/10/11 07:23:44;;;;;;;17.45;3.15;;;;;;;;;;5032685;28;20208;-74
2021/10/11 07:26:10;;;;;;;17.90;3.33;;;;;;;;;;5039123;28;20565;-75
2021/10/11 07:28:35;;;;;;;12.77;2.95;;;;;;;;;;5039385;28;20257;-75
2021/10/11 07:31:01;;;;;;;9.25;2.75;;;;;;;;;;4680298;28;10000388;-75
2021/10/11 07:33:26;;;;;;;15.57;3.38;;;;;;;;;;5037421;28;20664;-76
2021/10/11 07:35:53;;;;;;;15.57;3.53;;;;;;;;;;5033358;28;20210;-74
2021/10/11 07:38:19;;;;;;;16.65;3.70;;;;;;;;;;5042674;28;20201;-74
2021/10/11 07:40:45;;;;;;;12.07;3.17;;;;;;;;;;5034006;28;20186;-74
2021/10/11 07:43:11;;;;;;;14.90;3.15;;;;;;;;;;5039822;28;20193;-75
2021/10/11 07:45:37;;;;;;;16.25;3.05;;;;;;;;;;5032863;28;20205;-76
2021/10/11 07:48:02;;;;;;;18.50;3.03;;;;;;;;;;5048142;28;20185;-75
2021/10/11 07:50:29;;;;;;;10.35;2.72;;;;;;;;;;5030363;28;20575;-74
2021/10/11 07:52:54;;;;;;;13.27;3.28;;;;;;;;;;5041909;28;20192;-75
2021/10/11 07:55:20;;;;;;;14.23;3.40;;;;;;;;;;5032516;28;20567;-74
2021/10/11 07:57:45;;;;;;;12.30;3.10;;;;;;;;;;5046068;28;20288;-75
2021/10/11 08:00:17;;;;;;;11.43;2.95;;;;;;;;;;5042061;28;20182;-76
2021/10/11 08:02:42;;;;;;;15.90;2.58;;;;;;;;;;5031282;28;20254;-75
2021/10/11 08:05:09;;;;;;;9.65;2.42;;;;;;;;;;5041142;28;20189;-74
2021/10/11 08:07:34;;;;;;;12.10;2.85;;;;;;;;;;5037019;28;20280;-75
2021/10/11 08:10:00;;;;;;;19.27;3.65;;;;;;;;;;5042659;28;20740;-75
2021/10/11 08:12:25;;;;;;;18.15;2.92;;;;;;;;;;5037787;28;20262;-75
2021/10/11 08:14:51;;;;;;;14.10;2.38;;;;;;;;;;5036871;28;20193;-76
2021/10/11 08:17:16;;;;;;;15.05;2.20;;;;;;;;;;5036235;28;20190;-74
2021/10/11 08:19:42;;;;;;;17.58;2.90;;;;;;;;;;5043245;28;20197;-75
2021/10/11 08:22:07;;;;;;;12.38;2.50;;;;;;;;;;5035510;28;20236;-75
2021/10/11 08:24:33;;;;;;;13.25;2.85;;;;;;;;;;5043596;28;20186;-75
2021/10/11 08:26:58;;;;;;;10.48;1.88;;;;;;;;;;5035702;28;20664;-75
2021/10/11 08:29:25;;;;;;;12.77;2.28;;;;;;;;;;5041206;28;20255;-75
2021/10/11 08:31:51;;;;;;;17.05;2.47;;;;;;;;;;5047864;28;20184;-77
2021/10/11 08:34:16;;;;;;;13.65;2.33;;;;;;;;;;5031134;28;20185;-75
2021/10/11 08:36:41;;;;;;;13.63;2.10;;;;;;;;;;5045347;28;20593;-75
2021/10/11 08:39:07;;;;;;;9.68;1.90;;;;;;;;;;5035393;28;20643;-76
2021/10/11 08:41:32;;;;;;;13.25;2.78;;;;;;;;;;5044740;28;20268;-75
2021/10/11 08:43:58;;;;;;;13.88;2.20;;;;;;;;;;5033982;28;20182;-76
2021/10/11 08:46:24;;;;;;;13.18;2.47;;;;;;;;;;5040584;28;20208;-75
2021/10/11 08:48:50;;;;;;;11.32;1.95;;;;;;;;;;5031971;28;20220;-75
2021/10/11 08:51:15;;;;;;;10.82;2.13;;;;;;;;;;5046269;28;20204;-75
2021/10/11 08:53:41;;;;;;;12.90;2.25;;;;;;;;;;5035307;28;20217;-77
2021/10/11 08:56:10;;;;;;;11.02;2.22;;;;;;;;;;5031785;28;20201;-75
2021/10/11 08:58:49;;;;;;;16.33;2.45;;;;;;;;;;5029285;28;20286;-75
2021/10/11 09:01:19;;;;;;;10.20;2.03;;;;;;;;;;5042102;28;21179;-77
2021/10/11 09:03:45;;;;;;;13.38;2.03;;;;;;;;;;5034255;28;20345;-75
2021/10/11 09:06:12;;;;;;;15.43;1.95;;;;;;;;;;5040437;28;20181;-75
2021/10/11 09:08:40;;;;;;;10.63;2.15;;;;;;;;;;5038988;28;20255;-75
2021/10/11 09:11:08;;;;;;;14.68;1.98;;;;;;;;;;5030895;28;20197;-76
2021/10/11 09:13:39;;;;;;;11.25;2.10;;;;;;;;;;5039385;28;20189;-76
2021/10/11 09:16:06;;;;;;;12.13;1.92;;;;;;;;;;5032807;28;20605;-75
2021/10/11 09:18:33;;;;;;;9.63;2.00;;;;;;;;;;5039600;28;20570;-74
2021/10/11 09:21:00;;;;;;;17.92;2.42;;;;;;;;;;5037112;28;20310;-74
2021/10/11 09:23:29;;;;;;;12.48;2.30;;;;;;;;;;5040044;28;20304;-74
2021/10/11 09:25:55;;;;;;;12.70;1.73;;;;;;;;;;5030758;28;20191;-75
2021/10/11 09:28:20;;;;;;;11.73;1.98;;;;;;;;;;5037098;28;20289;-76
2021/10/11 09:30:48;;;;;;;14.93;1.60;;;;;;;;;;5025926;28;20885;-74
2021/10/11 09:33:20;;;;;;;14.10;2.25;;;;;;;;;;5037187;28;20287;-75
2021/10/11 09:35:46;;;;;;;9.43;1.58;;;;;;;;;;5030165;28;20306;-74
2021/10/11 09:38:18;;;;;;;15.00;2.10;;;;;;;;;;5037664;28;20236;-74
2021/10/11 09:40:43;;;;;;;9.07;1.70;;;;;;;;;;5030737;28;20189;-74
2021/10/11 09:43:14;;;;;;;12.38;1.85;;;;;;;;;;5035377;28;20213;-78
2021/10/11 09:45:40;;;;;;;11.10;1.73;;;;;;;;;;5038726;28;20252;-74
2021/10/11 09:48:06;;;;;;;11.40;2.28;;;;;;;;;;5035140;28;20189;-74
2021/10/11 09:50:33;;;;;;;13.75;2.00;;;;;;;;;;5036283;28;20609;-73
2021/10/11 09:52:59;;;;;;;13.65;1.75;;;;;;;;;;5036138;28;20549;-74
2021/10/11 09:55:25;;;;;;;13.18;1.80;;;;;;;;;;5040786;28;20201;-75
2021/10/11 09:57:50;;;;;;;17.00;2.17;;;;;;;;;;5034575;28;20204;-75
2021/10/11 10:00:15;;;;;;;12.55;2.47;;;;;;;;;;5040648;28;20653;-75
2021/10/11 10:02:43;;;;;;;14.45;2.50;;;;;;;;;;5033266;28;20235;-75
2021/10/11 10:05:13;;;;;;;12.10;1.90;;;;;;;;;;5034409;28;20177;-75
2021/10/11 10:07:49;;;;;;;9.68;1.73;;;;;;;;;;5032907;28;20224;-75
2021/10/11 10:10:19;;;;;;;14.95;2.17;;;;;;;;;;5036702;28;20228;-75
2021/10/11 10:12:49;;;;;;;11.70;1.75;;;;;;;;;;5031220;28;20577;-77
2021/10/11 10:15:27;;;;;;;8.50;1.67;;;;;;;;;;5035258;28;20595;-76
2021/10/11 10:18:02;;;;;;;14.52;2.63;;;;;;;;;;5027285;28;20602;-75
2021/10/11 10:20:28;;;;;;;7.45;1.92;;;;;;;;;;5041403;28;20203;-75
2021/10/11 10:22:53;;;;;;;13.55;2.20;;;;;;;;;;5030745;28;20182;-75
2021/10/11 10:25:19;;;;;;;12.55;1.98;;;;;;;;;;5036711;28;20216;-75
2021/10/11 10:27:47;;;;;;;11.02;1.85;;;;;;;;;;5046247;28;20186;-75
2021/10/11 10:30:17;;;;;;;12.52;1.92;;;;;;;;;;5028230;28;20682;-75
2021/10/11 10:32:55;;;;;;;17.83;2.63;;;;;;;;;;5033294;28;20570;-76
2021/10/11 10:35:20;;;;;;;12.60;2.13;;;;;;;;;;5029825;28;20280;-75
2021/10/11 10:37:46;;;;;;;11.05;1.63;;;;;;;;;;5032293;28;20276;-75
2021/10/11 10:40:15;;;;;;;10.93;1.20;;;;;;;;;;5033828;28;20239;-75
2021/10/11 10:42:40;;;;;;;12.10;1.88;;;;;;;;;;5040674;28;20288;-75
2021/10/11 10:45:21;;;;;;;9.52;1.55;;;;;;;;;;5029182;28;20190;-75
2021/10/11 10:47:50;;;;;;;9.73;1.10;;;;;;;;;;5032168;28;20189;-75
2021/10/11 10:50:17;;;;;;;13.63;2.05;;;;;;;;;;5028924;28;20269;-76
2021/10/11 10:52:53;;;;;;;9.75;1.58;;;;;;;;;;5042404;28;20232;-75
2021/10/11 10:55:19;;;;;;;7.85;1.58;;;;;;;;;;5025667;28;20613;-75
2021/10/11 10:57:45;;;;;;;9.80;1.77;;;;;;;;;;5039712;28;20415;-75
2021/10/11 11:00:16;;;;;;;9.45;1.50;;;;;;;;;;5030637;28;20692;-74
2021/10/11 11:02:50;;;;;;;10.50;1.70;;;;;;;;;;5037301;28;20217;-74
2021/10/11 11:05:18;;;;;;;7.60;1.48;;;;;;;;;;5029674;28;20308;-76
2021/10/11 11:07:45;;;;;;;14.18;1.63;;;;;;;;;;5035987;28;20638;-75
2021/10/11 11:10:16;;;;;;;10.15;1.58;;;;;;;;;;5035332;28;20599;-74
2021/10/11 11:12:49;;;;;;;17.55;1.67;;;;;;;;;;5029468;28;20220;-74
2021/10/11 11:15:32;;;;;;;6.20;1.25;;;;;;;;;;5037793;28;20205;-74
2021/10/11 11:18:00;;;;;;;9.27;1.60;;;;;;;;;;5029330;28;20619;-75
2021/10/11 11:20:28;;;;;;;10.82;1.77;;;;;;;;;;5042866;28;20200;-74
2021/10/11 11:22:56;;;;;;;12.23;2.33;;;;;;;;;;5033272;28;20197;-74
2021/10/11 11:25:32;;;;;;;6.47;1.58;;;;;;;;;;5038486;28;20603;-75
2021/10/11 11:27:57;;;;;;;5.60;1.02;;;;;;;;;;5029176;28;20261;-75
2021/10/11 11:30:24;;;;;;;6.60;1.23;;;;;;;;;;5038616;28;20216;-74
2021/10/11 11:32:52;;;;;;;12.70;1.73;;;;;;;;;;5031148;28;20194;-77
2021/10/11 11:35:24;;;;;;;12.00;1.60;;;;;;;;;;5023311;28;20290;-75
2021/10/11 11:37:52;;;;;;;12.75;1.95;;;;;;;;;;5020185;28;20193;-75
2021/10/11 11:40:19;;;;;;;8.20;1.20;;;;;;;;;;5034062;28;20197;-74
2021/10/11 11:42:47;;;;;;;7.53;1.63;;;;;;;;;;5028083;28;20201;-75
2021/10/11 11:45:12;;;;;;;10.93;1.77;;;;;;;;;;5029821;28;20197;-76
2021/10/11 11:47:38;;;;;;;7.20;1.00;;;;;;;;;;5024263;28;20185;-76
2021/10/11 11:50:16;;;;;;;7.72;1.27;;;;;;;;;;5031877;28;20189;-75
2021/10/11 11:52:41;;;;;;;5.72;1.50;;;;;;;;;;5027280;28;21358;-74
2021/10/11 11:55:08;;;;;;;8.73;1.10;;;;;;;;;;5033644;28;20210;-76
2021/10/11 11:57:43;;;;;;;9.07;1.23;;;;;;;;;;5034328;28;20224;-75
2021/10/11 12:00:11;;;;;;;8.40;1.08;;;;;;;;;;5023466;28;20193;-77
2021/10/11 12:02:37;;;;;;;6.15;1.20;;;;;;;;;;5032310;28;20597;-75
2021/10/11 12:05:03;;;;;;;2.75;0.60;;;;;;;;;;5025203;28;20248;-75
2021/10/11 12:07:28;;;;;;;7.32;1.10;;;;;;;;;;5035307;28;20216;-75
2021/10/11 12:09:54;;;;;;;9.38;1.30;;;;;;;;;;5026045;28;20546;-75
2021/10/11 12:12:19;;;;;;;5.35;0.73;;;;;;;;;;5036405;28;20232;-75
2021/10/11 12:14:49;;;;;;;5.18;0.88;;;;;;;;;;5025487;28;20600;-75
2021/10/11 12:17:15;;;;;;;7.95;1.60;;;;;;;;;;5032659;28;20193;-75
2021/10/11 12:19:41;;;;;;;6.20;1.15;;;;;;;;;;5025254;28;20193;-74
2021/10/11 12:22:06;;;;;;;9.82;0.98;;;;;;;;;;5034000;28;20194;-75
2021/10/11 12:24:32;;;;;;;5.88;1.00;;;;;;;;;;5024672;28;20181;-74
2021/10/11 12:27:06;;;;;;;7.07;0.82;;;;;;;;;;5034144;28;20189;-74
2021/10/11 12:29:35;;;;;;;6.13;1.00;;;;;;;;;;5033937;28;20196;-76
2021/10/11 12:32:08;;;;;;;7.97;1.27;;;;;;;;;;5025842;28;20193;-77
2021/10/11 12:34:35;;;;;;;5.88;1.67;;;;;;;;;;5032112;28;20186;-74
2021/10/11 12:37:03;;;;;;;7.32;1.10;;;;;;;;;;5021731;28;20715;-74
2021/10/11 12:39:32;;;;;;;7.78;0.90;;;;;;;;;;5033423;28;20242;-74
2021/10/11 12:41:58;;;;;;;6.07;1.15;;;;;;;;;;5023852;28;20972;-75
2021/10/11 12:44:43;;;;;;;6.32;0.88;;;;;;;;;;5035635;28;20292;-75
2021/10/11 12:47:08;;;;;;;7.20;1.30;;;;;;;;;;5026472;28;20198;-74
2021/10/11 12:49:38;;;;;;;10.13;1.20;;;;;;;;;;5034838;28;20680;-75
2021/10/11 12:52:05;;;;;;;7.15;0.98;;;;;;;;;;5027170;28;20194;-74
2021/10/11 12:54:39;;;;;;;7.97;1.30;;;;;;;;;;5032512;28;20190;-74
2021/10/11 12:57:04;;;;;;;9.00;1.20;;;;;;;;;;5025887;28;20273;-74
2021/10/11 12:59:31;;;;;;;4.68;1.52;;;;;;;;;;5034314;28;20288;-76
2021/10/11 13:01:58;;;;;;;6.72;0.80;;;;;;;;;;5026212;28;20539;-74
2021/10/11 13:04:24;;;;;;;7.43;1.10;;;;;;;;;;5032759;28;20335;-74
2021/10/11 13:06:49;;;;;;;3.92;0.98;;;;;;;;;;5025452;28;20323;-74
2021/10/11 13:09:16;;;;;;;4.38;0.98;;;;;;;;;;5030350;28;20268;-74
2021/10/11 13:11:43;;;;;;;6.85;1.13;;;;;;;;;;5034140;28;20791;-73
2021/10/11 13:14:11;;;;;;;8.57;0.90;;;;;;;;;;5023750;28;20189;-73
2021/10/11 13:16:38;;;;;;;4.97;0.90;;;;;;;;;;5034282;28;20209;-73
2021/10/11 13:19:04;;;;;;;6.63;1.00;;;;;;;;;;5025210;28;20197;-74
2021/10/11 13:21:34;;;;;;;10.27;1.00;;;;;;;;;;5031188;28;20700;-73
2021/10/11 13:24:00;;;;;;;6.47;1.08;;;;;;;;;;5023417;28;20224;-73
2021/10/11 13:26:27;;;;;;;12.32;1.75;;;;;;;;;;5028881;28;20223;-73
2021/10/11 13:29:01;;;;;;;10.75;1.40;;;;;;;;;;5024981;28;20216;-73
2021/10/11 14:26:32;;;;;;;5.30;1.05;;;;;;;;;;5022185;28;20280;-73
2021/10/11 14:29:11;;;;;;;5.53;1.08;;;;;;;;;;4684613;28;9999767;-73
2021/10/11 14:31:47;;;;;;;7.50;0.95;;;;;;;;;;5024634;28;20278;-74
2021/10/11 15:52:04;;;;;;;8.85;1.27;;;;;;;;;;5029561;28;20189;-74
2021/10/11 15:59:33;;;;;;;6.65;1.42;;;;;;;;;;5030539;28;20912;-73
2021/10/11 16:04:25;;;;;;;5.28;1.38;;;;;;;;;;5029994;28;20197;-73
2021/10/11 16:06:52;;;;;;;7.05;1.25;;;;;;;;;;5022406;28;20201;-74
2021/10/11 16:09:19;;;;;;;9.05;1.63;;;;;;;;;;5027356;28;20400;-74
2021/10/11 16:11:45;;;;;;;5.55;1.88;;;;;;;;;;5022948;28;20185;-72
2021/10/11 16:14:10;;;;;;;6.72;1.35;;;;;;;;;;5031145;28;20200;-74
2021/10/11 16:16:36;;;;;;;9.25;1.98;;;;;;;;;;5033334;28;20282;-74
2021/10/11 16:19:03;;;;;;;7.55;1.08;;;;;;;;;;5021615;28;20182;-74
2021/10/11 16:21:28;;;;;;;6.63;1.67;;;;;;;;;;5031529;28;20239;-74
2021/10/11 16:23:53;;;;;;;9.70;1.55;;;;;;;;;;5022635;28;20594;-74
2021/10/11 16:26:19;;;;;;;6.57;1.70;;;;;;;;;;5033306;28;20276;-73
2021/10/11 16:28:45;;;;;;;9.27;1.70;;;;;;;;;;5023116;28;20185;-73
2021/10/11 16:31:13;;;;;;;7.00;2.10;;;;;;;;;;5029444;28;20228;-73
2021/10/11 16:33:41;;;;;;;6.85;1.50;;;;;;;;;;5019936;28;20550;-72
2021/10/11 16:36:09;;;;;;;10.30;2.15;;;;;;;;;;5026663;28;20643;-72
2021/10/11 16:38:41;;;;;;;8.05;2.00;;;;;;;;;;5019373;28;20193;-71
2021/10/11 16:41:08;;;;;;;6.75;1.98;;;;;;;;;;5018002;28;20204;-72
2021/10/11 16:43:35;;;;;;;14.20;3.28;;;;;;;;;;5019248;28;20743;-73
2021/10/11 16:46:00;;;;;;;8.05;2.40;;;;;;;;;;5024099;28;20959;-72
2021/10/11 16:48:26;;;;;;;10.73;2.20;;;;;;;;;;5025000;28;20415;-73